sensor_id;sensor_type;location;lat;lon;timestamp;temperature;humidity
37456;DHT22;23316;50.718;7.328;2023-04-01T00:02:17;14.30;51.90
37456;DHT22;23316;50.718;7.328;2023-04-01T00:04:44;14.30;51.90
37456;DHT22;23316;50.718;7.328;2023-04-01T00:07:12;14.30;51.90
37456;DHT22;23316;50.718;7.328;2023-04-01T00:09:40;14.30;51.90
37456;DHT22;23316;50.718;7.328;2023-04-01T00:12:08;14.20;51.90
37456;DHT22;23316;50.718;7.328;2023-04-01T00:14:35;14.30;52.50
37456;DHT22;23316;50.718;7.328;2023-04-01T00:17:03;14.20;52.10
37456;DHT22;23316;50.718;7.328;2023-04-01T00:19:31;14.20;52.20
37456;DHT22;23316;50.718;7.328;2023-04-01T00:21:59;14.20;52.30
37456;DHT22;23316;50.718;7.328;2023-04-01T00:24:26;14.20;52.30
37456;DHT22;23316;50.718;7.328;2023-04-01T00:26:53;14.20;52.40
37456;DHT22;23316;50.718;7.328;2023-04-01T00:29:22;14.20;52.50
37456;DHT22;23316;50.718;7.328;2023-04-01T00:31:55;14.10;52.60
37456;DHT22;23316;50.718;7.328;2023-04-01T00:34:23;14.20;52.70
37456;DHT22;23316;50.718;7.328;2023-04-01T00:36:50;14.20;52.70
37456;DHT22;23316;50.718;7.328;2023-04-01T00:39:18;14.10;52.80
37456;DHT22;23316;50.718;7.328;2023-04-01T00:41:46;14.10;52.80
37456;DHT22;23316;50.718;7.328;2023-04-01T00:44:16;14.10;52.80
37456;DHT22;23316;50.718;7.328;2023-04-01T00:46:46;14.10;52.80
37456;DHT22;23316;50.718;7.328;2023-04-01T00:49:14;14.10;52.80
37456;DHT22;23316;50.718;7.328;2023-04-01T00:51:42;14.10;52.80
37456;DHT22;23316;50.718;7.328;2023-04-01T00:54:11;14.10;52.80
37456;DHT22;23316;50.718;7.328;2023-04-01T00:56:42;14.00;52.80
37456;DHT22;23316;50.718;7.328;2023-04-01T00:59:17;14.00;52.80
37456;DHT22;23316;50.718;7.328;2023-04-01T01:01:47;14.00;52.80
37456;DHT22;23316;50.718;7.328;2023-04-01T01:04:25;14.00;52.80
37456;DHT22;23316;50.718;7.328;2023-04-01T01:07:00;14.00;52.80
37456;DHT22;23316;50.718;7.328;2023-04-01T01:09:38;14.00;52.80
37456;DHT22;23316;50.718;7.328;2023-04-01T01:12:12;14.00;52.80
37456;DHT22;23316;50.718;7.328;2023-04-01T01:14:56;14.00;52.80
37456;DHT22;23316;50.718;7.328;2023-04-01T01:17:38;14.00;52.90
37456;DHT22;23316;50.718;7.328;2023-04-01T01:23:29;13.90;52.80
37456;DHT22;23316;50.718;7.328;2023-04-01T01:26:16;13.90;52.90
37456;DHT22;23316;50.718;7.328;2023-04-01T01:28:52;13.90;52.90
37456;DHT22;23316;50.718;7.328;2023-04-01T01:31:29;13.90;52.80
37456;DHT22;23316;50.718;7.328;2023-04-01T01:34:12;13.90;52.90
37456;DHT22;23316;50.718;7.328;2023-04-01T01:36:45;13.90;52.90
37456;DHT22;23316;50.718;7.328;2023-04-01T01:39:16;13.90;52.90
37456;DHT22;23316;50.718;7.328;2023-04-01T01:41:45;13.90;52.80
37456;DHT22;23316;50.718;7.328;2023-04-01T01:44:16;13.90;52.80
37456;DHT22;23316;50.718;7.328;2023-04-01T01:46:45;13.90;52.90
37456;DHT22;23316;50.718;7.328;2023-04-01T01:49:13;13.90;52.80
37456;DHT22;23316;50.718;7.328;2023-04-01T01:51:43;13.90;52.80
37456;DHT22;23316;50.718;7.328;2023-04-01T01:54:12;13.90;52.80
37456;DHT22;23316;50.718;7.328;2023-04-01T01:56:41;13.90;52.80
37456;DHT22;23316;50.718;7.328;2023-04-01T01:59:11;13.80;52.80
37456;DHT22;23316;50.718;7.328;2023-04-01T02:01:43;13.90;52.90
37456;DHT22;23316;50.718;7.328;2023-04-01T02:04:13;13.80;52.80
37456;DHT22;23316;50.718;7.328;2023-04-01T02:06:47;13.90;52.80
37456;DHT22;23316;50.718;7.328;2023-04-01T02:09:19;13.90;52.80
37456;DHT22;23316;50.718;7.328;2023-04-01T02:11:50;13.80;52.80
37456;DHT22;23316;50.718;7.328;2023-04-01T02:14:21;13.80;52.80
37456;DHT22;23316;50.718;7.328;2023-04-01T02:16:53;13.90;52.80
37456;DHT22;23316;50.718;7.328;2023-04-01T02:19:26;13.80;52.80
37456;DHT22;23316;50.718;7.328;2023-04-01T02:21:57;13.80;52.80
37456;DHT22;23316;50.718;7.328;2023-04-01T02:24:28;13.80;52.80
37456;DHT22;23316;50.718;7.328;2023-04-01T02:26:57;13.90;52.80
37456;DHT22;23316;50.718;7.328;2023-04-01T02:29:26;13.80;52.80
37456;DHT22;23316;50.718;7.328;2023-04-01T02:31:54;13.80;52.80
37456;DHT22;23316;50.718;7.328;2023-04-01T02:34:23;13.80;52.80
37456;DHT22;23316;50.718;7.328;2023-04-01T02:36:51;13.80;52.80
37456;DHT22;23316;50.718;7.328;2023-04-01T02:39:22;13.90;53.00
37456;DHT22;23316;50.718;7.328;2023-04-01T02:41:52;13.80;53.00
37456;DHT22;23316;50.718;7.328;2023-04-01T02:44:19;13.80;53.40
37456;DHT22;23316;50.718;7.328;2023-04-01T02:46:47;13.80;53.00
37456;DHT22;23316;50.718;7.328;2023-04-01T02:49:15;13.80;53.10
37456;DHT22;23316;50.718;7.328;2023-04-01T02:51:43;13.80;53.10
37456;DHT22;23316;50.718;7.328;2023-04-01T02:54:10;13.80;53.20
37456;DHT22;23316;50.718;7.328;2023-04-01T02:56:39;13.80;53.30
37456;DHT22;23316;50.718;7.328;2023-04-01T02:59:06;13.80;53.50
37456;DHT22;23316;50.718;7.328;2023-04-01T03:01:33;13.80;53.60
37456;DHT22;23316;50.718;7.328;2023-04-01T03:04:00;13.80;53.70
37456;DHT22;23316;50.718;7.328;2023-04-01T03:06:28;13.80;53.80
37456;DHT22;23316;50.718;7.328;2023-04-01T03:08:55;13.80;53.90
37456;DHT22;23316;50.718;7.328;2023-04-01T03:11:23;13.80;54.10
37456;DHT22;23316;50.718;7.328;2023-04-01T03:13:53;13.70;54.10
37456;DHT22;23316;50.718;7.328;2023-04-01T03:16:21;13.70;54.20
37456;DHT22;23316;50.718;7.328;2023-04-01T03:18:49;13.70;54.20
37456;DHT22;23316;50.718;7.328;2023-04-01T03:21:20;13.70;54.30
37456;DHT22;23316;50.718;7.328;2023-04-01T03:23:48;13.70;54.90
37456;DHT22;23316;50.718;7.328;2023-04-01T03:26:16;13.60;54.50
37456;DHT22;23316;50.718;7.328;2023-04-01T03:28:44;13.60;54.60
37456;DHT22;23316;50.718;7.328;2023-04-01T03:31:13;13.60;54.70
37456;DHT22;23316;50.718;7.328;2023-04-01T03:33:42;13.60;54.80
37456;DHT22;23316;50.718;7.328;2023-04-01T03:36:09;13.60;54.90
37456;DHT22;23316;50.718;7.328;2023-04-01T03:38:39;13.50;54.90
37456;DHT22;23316;50.718;7.328;2023-04-01T03:41:07;13.50;55.00
37456;DHT22;23316;50.718;7.328;2023-04-01T03:43:35;13.50;55.10
37456;DHT22;23316;50.718;7.328;2023-04-01T03:46:04;13.50;55.10
37456;DHT22;23316;50.718;7.328;2023-04-01T03:48:33;13.50;55.10
37456;DHT22;23316;50.718;7.328;2023-04-01T03:51:00;13.50;55.20
37456;DHT22;23316;50.718;7.328;2023-04-01T03:53:28;13.40;55.20
37456;DHT22;23316;50.718;7.328;2023-04-01T03:55:55;13.40;55.30
37456;DHT22;23316;50.718;7.328;2023-04-01T03:58:22;13.40;55.40
37456;DHT22;23316;50.718;7.328;2023-04-01T04:00:49;13.40;55.40
37456;DHT22;23316;50.718;7.328;2023-04-01T04:03:17;13.40;55.50
37456;DHT22;23316;50.718;7.328;2023-04-01T04:05:49;13.30;55.50
37456;DHT22;23316;50.718;7.328;2023-04-01T04:08:17;13.30;55.70
37456;DHT22;23316;50.718;7.328;2023-04-01T04:10:47;13.30;55.70
37456;DHT22;23316;50.718;7.328;2023-04-01T04:13:15;13.30;55.80
37456;DHT22;23316;50.718;7.328;2023-04-01T04:15:42;13.30;55.80
37456;DHT22;23316;50.718;7.328;2023-04-01T04:18:10;13.30;55.80
37456;DHT22;23316;50.718;7.328;2023-04-01T04:20:43;13.30;55.80
37456;DHT22;23316;50.718;7.328;2023-04-01T04:23:14;13.20;55.80
37456;DHT22;23316;50.718;7.328;2023-04-01T04:25:42;13.30;55.80
37456;DHT22;23316;50.718;7.328;2023-04-01T04:28:19;13.30;55.80
37456;DHT22;23316;50.718;7.328;2023-04-01T04:30:47;13.30;55.80
37456;DHT22;23316;50.718;7.328;2023-04-01T04:33:14;13.30;55.80
37456;DHT22;23316;50.718;7.328;2023-04-01T04:35:41;13.30;55.80
37456;DHT22;23316;50.718;7.328;2023-04-01T04:38:09;13.20;55.70
37456;DHT22;23316;50.718;7.328;2023-04-01T04:40:40;13.20;55.70
37456;DHT22;23316;50.718;7.328;2023-04-01T04:43:10;13.20;55.60
37456;DHT22;23316;50.718;7.328;2023-04-01T04:45:38;13.20;55.60
37456;DHT22;23316;50.718;7.328;2023-04-01T04:48:07;13.30;55.60
37456;DHT22;23316;50.718;7.328;2023-04-01T04:50:34;13.20;55.60
37456;DHT22;23316;50.718;7.328;2023-04-01T04:53:02;13.20;55.60
37456;DHT22;23316;50.718;7.328;2023-04-01T04:55:29;13.20;55.60
37456;DHT22;23316;50.718;7.328;2023-04-01T04:57:58;13.30;55.60
37456;DHT22;23316;50.718;7.328;2023-04-01T05:00:26;13.20;55.50
37456;DHT22;23316;50.718;7.328;2023-04-01T05:02:53;13.20;55.50
37456;DHT22;23316;50.718;7.328;2023-04-01T05:05:21;13.20;55.50
37456;DHT22;23316;50.718;7.328;2023-04-01T05:07:49;13.20;55.50
37456;DHT22;23316;50.718;7.328;2023-04-01T05:10:16;13.20;56.00
37456;DHT22;23316;50.718;7.328;2023-04-01T05:12:44;13.20;55.50
37456;DHT22;23316;50.718;7.328;2023-04-01T05:15:13;13.20;55.60
37456;DHT22;23316;50.718;7.328;2023-04-01T05:17:41;13.20;55.60
37456;DHT22;23316;50.718;7.328;2023-04-01T05:20:10;13.20;55.60
37456;DHT22;23316;50.718;7.328;2023-04-01T05:22:38;13.20;56.10
37456;DHT22;23316;50.718;7.328;2023-04-01T05:25:07;13.20;55.60
37456;DHT22;23316;50.718;7.328;2023-04-01T05:27:35;13.20;55.70
37456;DHT22;23316;50.718;7.328;2023-04-01T05:30:03;13.20;55.70
37456;DHT22;23316;50.718;7.328;2023-04-01T05:32:33;13.20;55.70
37456;DHT22;23316;50.718;7.328;2023-04-01T05:35:02;13.20;55.80
37456;DHT22;23316;50.718;7.328;2023-04-01T05:37:30;13.20;55.80
37456;DHT22;23316;50.718;7.328;2023-04-01T05:39:57;13.20;55.80
37456;DHT22;23316;50.718;7.328;2023-04-01T05:42:26;13.20;55.90
37456;DHT22;23316;50.718;7.328;2023-04-01T05:44:53;13.20;55.80
37456;DHT22;23316;50.718;7.328;2023-04-01T05:47:21;13.20;55.90
37456;DHT22;23316;50.718;7.328;2023-04-01T05:49:51;13.20;55.90
37456;DHT22;23316;50.718;7.328;2023-04-01T05:52:18;13.20;55.90
37456;DHT22;23316;50.718;7.328;2023-04-01T05:54:46;13.20;55.90
37456;DHT22;23316;50.718;7.328;2023-04-01T05:57:15;13.20;55.90
37456;DHT22;23316;50.718;7.328;2023-04-01T05:59:43;13.20;55.90
37456;DHT22;23316;50.718;7.328;2023-04-01T06:02:18;13.20;55.90
37456;DHT22;23316;50.718;7.328;2023-04-01T06:04:45;13.20;56.00
37456;DHT22;23316;50.718;7.328;2023-04-01T06:07:15;13.20;56.00
37456;DHT22;23316;50.718;7.328;2023-04-01T06:09:43;13.20;56.00
37456;DHT22;23316;50.718;7.328;2023-04-01T06:12:26;13.20;56.00
37456;DHT22;23316;50.718;7.328;2023-04-01T06:15:03;13.20;56.10
37456;DHT22;23316;50.718;7.328;2023-04-01T06:17:46;13.20;56.10
37456;DHT22;23316;50.718;7.328;2023-04-01T06:20:22;13.20;56.20
37456;DHT22;23316;50.718;7.328;2023-04-01T06:23:03;13.20;56.60
37456;DHT22;23316;50.718;7.328;2023-04-01T06:25:46;13.20;56.20
37456;DHT22;23316;50.718;7.328;2023-04-01T06:28:40;13.20;56.20
37456;DHT22;23316;50.718;7.328;2023-04-01T06:31:18;13.30;56.30
37456;DHT22;23316;50.718;7.328;2023-04-01T06:33:59;13.30;56.30
37456;DHT22;23316;50.718;7.328;2023-04-01T06:36:49;13.30;56.40
37456;DHT22;23316;50.718;7.328;2023-04-01T06:39:48;13.30;56.50
37456;DHT22;23316;50.718;7.328;2023-04-01T06:42:50;13.30;56.50
37456;DHT22;23316;50.718;7.328;2023-04-01T06:45:31;13.30;56.50
37456;DHT22;23316;50.718;7.328;2023-04-01T06:48:15;13.30;56.60
37456;DHT22;23316;50.718;7.328;2023-04-01T06:50:51;13.30;56.50
37456;DHT22;23316;50.718;7.328;2023-04-01T06:53:25;13.30;56.50
37456;DHT22;23316;50.718;7.328;2023-04-01T06:56:00;13.30;56.50
37456;DHT22;23316;50.718;7.328;2023-04-01T06:58:33;13.30;56.50
37456;DHT22;23316;50.718;7.328;2023-04-01T07:01:03;13.40;56.60
37456;DHT22;23316;50.718;7.328;2023-04-01T07:03:35;13.40;56.60
37456;DHT22;23316;50.718;7.328;2023-04-01T07:16:24;13.40;56.60
37456;DHT22;23316;50.718;7.328;2023-04-01T07:18:58;13.50;56.60
37456;DHT22;23316;50.718;7.328;2023-04-01T07:21:29;13.50;56.60
37456;DHT22;23316;50.718;7.328;2023-04-01T07:24:01;13.50;56.70
37456;DHT22;23316;50.718;7.328;2023-04-01T07:26:30;13.50;56.80
37456;DHT22;23316;50.718;7.328;2023-04-01T07:28:58;13.50;56.80
37456;DHT22;23316;50.718;7.328;2023-04-01T07:31:38;13.50;56.90
37456;DHT22;23316;50.718;7.328;2023-04-01T07:34:12;13.50;57.00
37456;DHT22;23316;50.718;7.328;2023-04-01T07:36:45;13.50;57.00
37456;DHT22;23316;50.718;7.328;2023-04-01T07:39:24;13.50;57.00
37456;DHT22;23316;50.718;7.328;2023-04-01T07:41:59;13.50;57.10
37456;DHT22;23316;50.718;7.328;2023-04-01T07:44:35;13.60;57.30
37456;DHT22;23316;50.718;7.328;2023-04-01T07:47:17;13.60;57.30
37456;DHT22;23316;50.718;7.328;2023-04-01T07:49:56;13.70;57.40
37456;DHT22;23316;50.718;7.328;2023-04-01T07:52:32;13.70;57.50
37456;DHT22;23316;50.718;7.328;2023-04-01T07:55:06;13.70;57.40
37456;DHT22;23316;50.718;7.328;2023-04-01T07:57:40;13.80;57.40
37456;DHT22;23316;50.718;7.328;2023-04-01T08:00:12;13.80;57.40
37456;DHT22;23316;50.718;7.328;2023-04-01T08:03:05;13.80;57.40
37456;DHT22;23316;50.718;7.328;2023-04-01T08:05:44;13.80;57.30
37456;DHT22;23316;50.718;7.328;2023-04-01T08:08:19;13.80;57.20
37456;DHT22;23316;50.718;7.328;2023-04-01T08:10:53;13.90;57.20
37456;DHT22;23316;50.718;7.328;2023-04-01T08:13:31;13.90;57.20
37456;DHT22;23316;50.718;7.328;2023-04-01T08:16:08;13.80;57.20
37456;DHT22;23316;50.718;7.328;2023-04-01T08:18:45;13.90;57.20
37456;DHT22;23316;50.718;7.328;2023-04-01T08:21:17;13.90;57.20
37456;DHT22;23316;50.718;7.328;2023-04-01T08:23:48;13.90;57.20
37456;DHT22;23316;50.718;7.328;2023-04-01T08:26:22;13.90;57.30
37456;DHT22;23316;50.718;7.328;2023-04-01T08:28:53;13.90;57.30
37456;DHT22;23316;50.718;7.328;2023-04-01T08:31:26;13.90;57.30
37456;DHT22;23316;50.718;7.328;2023-04-01T08:33:58;13.90;57.30
37456;DHT22;23316;50.718;7.328;2023-04-01T08:36:31;13.90;57.30
37456;DHT22;23316;50.718;7.328;2023-04-01T08:39:03;13.90;57.30
37456;DHT22;23316;50.718;7.328;2023-04-01T08:41:50;13.90;57.30
37456;DHT22;23316;50.718;7.328;2023-04-01T08:44:34;13.90;57.80
37456;DHT22;23316;50.718;7.328;2023-04-01T08:47:20;13.90;57.30
37456;DHT22;23316;50.718;7.328;2023-04-01T08:50:05;13.90;57.30
37456;DHT22;23316;50.718;7.328;2023-04-01T08:52:41;13.90;57.40
37456;DHT22;23316;50.718;7.328;2023-04-01T08:55:27;13.90;57.30
37456;DHT22;23316;50.718;7.328;2023-04-01T09:01:21;13.90;57.50
37456;DHT22;23316;50.718;7.328;2023-04-01T09:04:10;14.00;57.50
37456;DHT22;23316;50.718;7.328;2023-04-01T09:06:50;14.00;57.50
37456;DHT22;23316;50.718;7.328;2023-04-01T09:09:36;14.00;57.60
37456;DHT22;23316;50.718;7.328;2023-04-01T09:12:34;14.00;57.70
37456;DHT22;23316;50.718;7.328;2023-04-01T09:15:36;14.00;57.70
37456;DHT22;23316;50.718;7.328;2023-04-01T09:18:24;14.00;57.70
37456;DHT22;23316;50.718;7.328;2023-04-01T09:24:30;14.00;57.80
37456;DHT22;23316;50.718;7.328;2023-04-01T09:27:05;14.10;57.90
37456;DHT22;23316;50.718;7.328;2023-04-01T09:32:53;14.00;57.90
37456;DHT22;23316;50.718;7.328;2023-04-01T09:35:24;14.10;57.90
37456;DHT22;23316;50.718;7.328;2023-04-01T09:37:54;14.10;58.00
37456;DHT22;23316;50.718;7.328;2023-04-01T09:40:37;14.10;58.10
37456;DHT22;23316;50.718;7.328;2023-04-01T09:43:25;14.00;58.10
37456;DHT22;23316;50.718;7.328;2023-04-01T09:46:07;14.00;58.20
37456;DHT22;23316;50.718;7.328;2023-04-01T09:49:04;14.10;58.20
37456;DHT22;23316;50.718;7.328;2023-04-01T09:51:47;14.10;58.60
37456;DHT22;23316;50.718;7.328;2023-04-01T09:54:27;14.10;58.40
37456;DHT22;23316;50.718;7.328;2023-04-01T09:57:24;14.10;58.50
37456;DHT22;23316;50.718;7.328;2023-04-01T10:00:10;14.10;58.40
37456;DHT22;23316;50.718;7.328;2023-04-01T10:09:20;14.20;58.30
37456;DHT22;23316;50.718;7.328;2023-04-01T10:11:57;14.10;58.50
37456;DHT22;23316;50.718;7.328;2023-04-01T10:15:07;14.20;58.40
37456;DHT22;23316;50.718;7.328;2023-04-01T10:20:46;14.20;58.40
37456;DHT22;23316;50.718;7.328;2023-04-01T10:23:31;14.20;58.40
37456;DHT22;23316;50.718;7.328;2023-04-01T10:26:36;14.20;58.50
37456;DHT22;23316;50.718;7.328;2023-04-01T10:29:31;14.20;58.30
37456;DHT22;23316;50.718;7.328;2023-04-01T10:32:26;14.20;58.30
37456;DHT22;23316;50.718;7.328;2023-04-01T10:38:18;14.20;58.40
37456;DHT22;23316;50.718;7.328;2023-04-01T10:41:04;14.20;58.40
37456;DHT22;23316;50.718;7.328;2023-04-01T10:47:05;14.30;58.40
37456;DHT22;23316;50.718;7.328;2023-04-01T10:49:43;14.30;58.40
37456;DHT22;23316;50.718;7.328;2023-04-01T10:58:54;14.30;57.80
37456;DHT22;23316;50.718;7.328;2023-04-01T11:05:04;14.30;57.40
37456;DHT22;23316;50.718;7.328;2023-04-01T11:11:16;14.20;57.70
37456;DHT22;23316;50.718;7.328;2023-04-01T11:14:29;14.20;57.80
37456;DHT22;23316;50.718;7.328;2023-04-01T11:17:24;14.20;58.10
37456;DHT22;23316;50.718;7.328;2023-04-01T11:29:18;14.40;58.20
37456;DHT22;23316;50.718;7.328;2023-04-01T11:31:57;14.50;58.20
37456;DHT22;23316;50.718;7.328;2023-04-01T11:34:49;14.50;58.20
37456;DHT22;23316;50.718;7.328;2023-04-01T11:37:30;14.50;58.20
37456;DHT22;23316;50.718;7.328;2023-04-01T11:40:10;14.50;58.10
37456;DHT22;23316;50.718;7.328;2023-04-01T11:42:46;14.50;58.30
37456;DHT22;23316;50.718;7.328;2023-04-01T11:45:23;14.50;58.30
37456;DHT22;23316;50.718;7.328;2023-04-01T11:48:22;14.50;58.30
37456;DHT22;23316;50.718;7.328;2023-04-01T11:53:56;14.60;58.50
37456;DHT22;23316;50.718;7.328;2023-04-01T11:56:39;14.70;58.50
37456;DHT22;23316;50.718;7.328;2023-04-01T11:59:36;14.60;58.50
37456;DHT22;23316;50.718;7.328;2023-04-01T12:02:13;14.70;58.50
37456;DHT22;23316;50.718;7.328;2023-04-01T12:05:04;14.70;58.50
37456;DHT22;23316;50.718;7.328;2023-04-01T12:07:48;14.80;58.50
37456;DHT22;23316;50.718;7.328;2023-04-01T12:10:19;14.80;58.10
37456;DHT22;23316;50.718;7.328;2023-04-01T12:12:54;14.80;57.80
37456;DHT22;23316;50.718;7.328;2023-04-01T12:15:32;14.80;57.90
37456;DHT22;23316;50.718;7.328;2023-04-01T12:18:05;14.80;58.20
37456;DHT22;23316;50.718;7.328;2023-04-01T12:20:44;14.80;58.20
37456;DHT22;23316;50.718;7.328;2023-04-01T12:26:15;14.80;58.00
37456;DHT22;23316;50.718;7.328;2023-04-01T12:28:59;14.80;57.80
37456;DHT22;23316;50.718;7.328;2023-04-01T12:31:41;14.80;57.80
37456;DHT22;23316;50.718;7.328;2023-04-01T12:37:20;14.80;58.10
37456;DHT22;23316;50.718;7.328;2023-04-01T12:39:58;14.80;58.20
37456;DHT22;23316;50.718;7.328;2023-04-01T12:42:41;14.80;58.20
37456;DHT22;23316;50.718;7.328;2023-04-01T12:45:28;14.80;58.20
37456;DHT22;23316;50.718;7.328;2023-04-01T12:48:06;14.80;58.20
37456;DHT22;23316;50.718;7.328;2023-04-01T12:50:51;14.90;58.30
37456;DHT22;23316;50.718;7.328;2023-04-01T12:53:37;14.80;58.80
37456;DHT22;23316;50.718;7.328;2023-04-01T12:56:11;14.90;58.50
37456;DHT22;23316;50.718;7.328;2023-04-01T12:59:15;14.90;58.30
37456;DHT22;23316;50.718;7.328;2023-04-01T13:01:55;14.90;58.30
37456;DHT22;23316;50.718;7.328;2023-04-01T13:10:20;14.90;58.40
37456;DHT22;23316;50.718;7.328;2023-04-01T13:13:14;15.00;58.20
37456;DHT22;23316;50.718;7.328;2023-04-01T13:15:47;15.00;57.90
37456;DHT22;23316;50.718;7.328;2023-04-01T13:18:24;15.00;57.70
37456;DHT22;23316;50.718;7.328;2023-04-01T13:21:05;15.00;57.70
37456;DHT22;23316;50.718;7.328;2023-04-01T13:23:48;15.00;57.60
37456;DHT22;23316;50.718;7.328;2023-04-01T13:26:26;15.00;57.60
37456;DHT22;23316;50.718;7.328;2023-04-01T13:28:59;15.00;57.50
37456;DHT22;23316;50.718;7.328;2023-04-01T13:31:49;15.00;57.60
37456;DHT22;23316;50.718;7.328;2023-04-01T13:34:30;15.00;57.80
37456;DHT22;23316;50.718;7.328;2023-04-01T13:37:15;15.00;57.90
37456;DHT22;23316;50.718;7.328;2023-04-01T13:40:02;15.00;57.90
37456;DHT22;23316;50.718;7.328;2023-04-01T13:42:37;15.00;58.00
37456;DHT22;23316;50.718;7.328;2023-04-01T13:45:14;15.00;57.80
37456;DHT22;23316;50.718;7.328;2023-04-01T13:51:16;15.00;57.70
37456;DHT22;23316;50.718;7.328;2023-04-01T13:57:23;15.00;57.90
37456;DHT22;23316;50.718;7.328;2023-04-01T14:00:06;15.00;57.90
37456;DHT22;23316;50.718;7.328;2023-04-01T14:02:47;15.00;58.10
37456;DHT22;23316;50.718;7.328;2023-04-01T14:05:32;15.00;58.10
37456;DHT22;23316;50.718;7.328;2023-04-01T14:08:09;15.00;58.10
37456;DHT22;23316;50.718;7.328;2023-04-01T14:10:43;15.00;58.10
37456;DHT22;23316;50.718;7.328;2023-04-01T14:13:22;15.00;58.10
37456;DHT22;23316;50.718;7.328;2023-04-01T14:16:04;15.00;58.10
37456;DHT22;23316;50.718;7.328;2023-04-01T14:18:48;15.00;58.20
37456;DHT22;23316;50.718;7.328;2023-04-01T14:21:29;15.00;58.10
37456;DHT22;23316;50.718;7.328;2023-04-01T14:24:18;15.00;58.10
37456;DHT22;23316;50.718;7.328;2023-04-01T14:27:10;15.00;58.10
37456;DHT22;23316;50.718;7.328;2023-04-01T14:29:50;15.00;58.10
37456;DHT22;23316;50.718;7.328;2023-04-01T14:32:28;15.00;58.00
37456;DHT22;23316;50.718;7.328;2023-04-01T14:35:17;15.00;58.10
37456;DHT22;23316;50.718;7.328;2023-04-01T14:37:58;15.00;58.20
37456;DHT22;23316;50.718;7.328;2023-04-01T14:40:34;15.00;58.20
37456;DHT22;23316;50.718;7.328;2023-04-01T14:43:46;15.10;58.10
37456;DHT22;23316;50.718;7.328;2023-04-01T14:49:34;15.10;57.70
37456;DHT22;23316;50.718;7.328;2023-04-01T14:52:11;15.10;57.60
37456;DHT22;23316;50.718;7.328;2023-04-01T14:54:42;15.10;57.40
37456;DHT22;23316;50.718;7.328;2023-04-01T14:57:12;15.00;57.30
37456;DHT22;23316;50.718;7.328;2023-04-01T14:59:47;15.10;57.00
37456;DHT22;23316;50.718;7.328;2023-04-01T15:02:41;15.00;56.60
37456;DHT22;23316;50.718;7.328;2023-04-01T15:05:19;15.00;56.50
37456;DHT22;23316;50.718;7.328;2023-04-01T15:08:00;15.00;56.40
37456;DHT22;23316;50.718;7.328;2023-04-01T15:10:47;14.90;56.50
37456;DHT22;23316;50.718;7.328;2023-04-01T15:13:26;14.90;56.60
37456;DHT22;23316;50.718;7.328;2023-04-01T15:16:09;14.90;56.80
37456;DHT22;23316;50.718;7.328;2023-04-01T15:18:47;14.90;57.00
37456;DHT22;23316;50.718;7.328;2023-04-01T15:21:27;14.90;56.90
37456;DHT22;23316;50.718;7.328;2023-04-01T15:24:06;14.90;57.00
37456;DHT22;23316;50.718;7.328;2023-04-01T15:26:59;14.90;57.10
37456;DHT22;23316;50.718;7.328;2023-04-01T15:29:56;14.90;56.90
37456;DHT22;23316;50.718;7.328;2023-04-01T15:32:32;14.90;56.80
37456;DHT22;23316;50.718;7.328;2023-04-01T15:35:18;15.00;56.70
37456;DHT22;23316;50.718;7.328;2023-04-01T15:37:52;14.90;56.60
37456;DHT22;23316;50.718;7.328;2023-04-01T15:40:26;14.90;56.60
37456;DHT22;23316;50.718;7.328;2023-04-01T15:43:11;14.90;56.60
37456;DHT22;23316;50.718;7.328;2023-04-01T15:45:55;14.90;56.60
37456;DHT22;23316;50.718;7.328;2023-04-01T15:48:39;14.90;56.50
37456;DHT22;23316;50.718;7.328;2023-04-01T15:51:18;14.90;56.60
37456;DHT22;23316;50.718;7.328;2023-04-01T15:54:25;14.90;56.60
37456;DHT22;23316;50.718;7.328;2023-04-01T15:57:05;14.90;56.60
37456;DHT22;23316;50.718;7.328;2023-04-01T15:59:50;14.90;56.80
37456;DHT22;23316;50.718;7.328;2023-04-01T16:02:24;14.80;56.80
37456;DHT22;23316;50.718;7.328;2023-04-01T16:05:00;14.80;57.00
37456;DHT22;23316;50.718;7.328;2023-04-01T16:07:43;14.80;57.10
37456;DHT22;23316;50.718;7.328;2023-04-01T16:10:31;14.80;57.20
37456;DHT22;23316;50.718;7.328;2023-04-01T16:13:11;14.70;57.20
37456;DHT22;23316;50.718;7.328;2023-04-01T16:15:47;14.70;57.30
37456;DHT22;23316;50.718;7.328;2023-04-01T16:18:34;14.70;57.50
37456;DHT22;23316;50.718;7.328;2023-04-01T16:21:10;14.70;57.70
37456;DHT22;23316;50.718;7.328;2023-04-01T16:23:46;14.70;57.60
37456;DHT22;23316;50.718;7.328;2023-04-01T16:26:18;14.70;57.60
37456;DHT22;23316;50.718;7.328;2023-04-01T16:28:54;14.70;57.60
37456;DHT22;23316;50.718;7.328;2023-04-01T16:31:31;14.70;57.70
37456;DHT22;23316;50.718;7.328;2023-04-01T16:34:04;14.70;57.80
37456;DHT22;23316;50.718;7.328;2023-04-01T16:36:42;14.70;58.00
37456;DHT22;23316;50.718;7.328;2023-04-01T16:39:22;14.60;57.90
37456;DHT22;23316;50.718;7.328;2023-04-01T16:41:59;14.70;58.10
37456;DHT22;23316;50.718;7.328;2023-04-01T16:44:48;14.60;58.00
37456;DHT22;23316;50.718;7.328;2023-04-01T16:47:20;14.60;58.00
37456;DHT22;23316;50.718;7.328;2023-04-01T16:49:52;14.60;58.00
37456;DHT22;23316;50.718;7.328;2023-04-01T16:52:39;14.60;58.10
37456;DHT22;23316;50.718;7.328;2023-04-01T16:55:15;14.60;58.20
37456;DHT22;23316;50.718;7.328;2023-04-01T16:57:48;14.60;58.20
37456;DHT22;23316;50.718;7.328;2023-04-01T17:00:24;14.50;58.20
37456;DHT22;23316;50.718;7.328;2023-04-01T17:03:02;14.50;58.10
37456;DHT22;23316;50.718;7.328;2023-04-01T17:05:40;14.50;58.10
37456;DHT22;23316;50.718;7.328;2023-04-01T17:08:21;14.50;58.20
37456;DHT22;23316;50.718;7.328;2023-04-01T17:10:53;14.50;58.20
37456;DHT22;23316;50.718;7.328;2023-04-01T17:13:32;14.50;58.20
37456;DHT22;23316;50.718;7.328;2023-04-01T17:16:12;14.50;58.20
37456;DHT22;23316;50.718;7.328;2023-04-01T17:18:47;14.40;58.20
37456;DHT22;23316;50.718;7.328;2023-04-01T17:21:22;14.40;58.20
37456;DHT22;23316;50.718;7.328;2023-04-01T17:24:02;14.40;58.20
37456;DHT22;23316;50.718;7.328;2023-04-01T17:26:37;14.40;58.20
37456;DHT22;23316;50.718;7.328;2023-04-01T17:29:12;14.30;58.00
37456;DHT22;23316;50.718;7.328;2023-04-01T17:31:46;14.30;58.10
37456;DHT22;23316;50.718;7.328;2023-04-01T17:34:25;14.30;58.10
37456;DHT22;23316;50.718;7.328;2023-04-01T17:37:06;14.30;58.20
37456;DHT22;23316;50.718;7.328;2023-04-01T17:39:47;14.20;58.40
37456;DHT22;23316;50.718;7.328;2023-04-01T17:42:21;14.20;58.50
37456;DHT22;23316;50.718;7.328;2023-04-01T17:44:58;14.20;58.50
37456;DHT22;23316;50.718;7.328;2023-04-01T17:47:43;14.10;58.50
37456;DHT22;23316;50.718;7.328;2023-04-01T17:50:22;14.10;58.60
37456;DHT22;23316;50.718;7.328;2023-04-01T17:53:05;14.10;58.60
37456;DHT22;23316;50.718;7.328;2023-04-01T17:55:52;14.00;58.60